Time;durP1;ratioP1;P1;durP2;ratioP2;P2;SDS_P1;SDS_P2;PMS_P1;PMS_P2;Temp;Humidity;BMP_temperature;BMP_pressure;BME280_temperature;BME280_humidity;BME280_pressure;Samples;Min_cycle;Max_cycle;Signal;HPM_P1;HPM_P2
2022/06/05 00:01:53;;;;;;;8.73;8.13;;;22.70;97.70;;;;;;5073183;28;20473;-68
2022/06/05 00:04:37;;;;;;;8.37;7.77;;;22.70;97.60;;;;;;5072834;28;20583;-67
2022/06/05 00:07:45;;;;;;;8.47;7.80;;;22.60;97.70;;;;;;5080814;28;20475;-70
2022/06/05 00:10:17;;;;;;;10.13;8.03;;;22.60;97.70;;;;;;5064404;28;20453;-69
2022/06/05 00:13:10;;;;;;;9.20;8.50;;;22.50;97.80;;;;;;5069182;28;20453;-70
2022/06/05 00:15:36;;;;;;;8.93;8.30;;;22.50;97.80;;;;;;5065494;28;20452;-68
2022/06/05 00:18:02;;;;;;;9.17;8.27;;;22.50;97.80;;;;;;5070746;28;20867;-68
2022/06/05 00:20:28;;;;;;;9.20;8.30;;;22.50;97.80;;;;;;5052651;28;20464;-68
2022/06/05 00:22:54;;;;;;;9.33;8.43;;;22.40;97.80;;;;;;5059453;28;20477;-69
2022/06/05 00:25:20;;;;;;;8.50;7.80;;;22.40;98.00;;;;;;5068205;28;20271;-67
2022/06/05 00:28:08;;;;;;;9.07;8.33;;;22.40;98.10;;;;;;5062413;28;20466;-68
2022/06/05 00:30:44;;;;;;;8.80;8.17;;;22.40;98.10;;;;;;5068224;28;20218;-70
2022/06/05 00:33:17;;;;;;;10.73;9.73;;;22.40;98.20;;;;;;5048572;28;20460;-69
2022/06/05 00:36:03;;;;;;;8.40;7.80;;;22.40;98.20;;;;;;5066720;28;20449;-67
2022/06/05 00:38:42;;;;;;;9.57;8.77;;;22.40;98.20;;;;;;5085031;28;20827;-68
2022/06/05 00:41:39;;;;;;;9.10;8.33;;;22.40;98.30;;;;;;5057656;28;20492;-69
2022/06/05 00:44:09;;;;;;;8.80;8.10;;;22.30;98.30;;;;;;5074395;28;20456;-69
2022/06/05 00:46:38;;;;;;;9.20;8.50;;;22.30;98.30;;;;;;5070479;28;20542;-68
2022/06/05 00:49:06;;;;;;;8.13;7.43;;;22.30;98.20;;;;;;5051797;28;20465;-69
2022/06/05 00:51:32;;;;;;;10.77;9.80;;;22.30;98.40;;;;;;5068350;28;20452;-70
2022/06/05 00:53:58;;;;;;;9.57;8.77;;;22.30;98.40;;;;;;5070085;28;20463;-69
2022/06/05 00:56:24;;;;;;;8.77;8.07;;;22.30;98.40;;;;;;5066489;28;20436;-67
2022/06/05 00:58:51;;;;;;;9.07;8.30;;;22.20;98.40;;;;;;5069181;28;20215;-68
2022/06/05 01:01:17;;;;;;;8.63;7.90;;;22.20;98.50;;;;;;5068690;28;20263;-69
2022/06/05 01:03:43;;;;;;;9.60;8.70;;;22.10;98.50;;;;;;5075679;28;20468;-68
2022/06/05 01:06:09;;;;;;;9.70;9.00;;;22.10;98.50;;;;;;5056406;28;20227;-69
2022/06/05 01:08:35;;;;;;;9.47;8.77;;;22.10;98.70;;;;;;5073171;28;20207;-69
2022/06/05 01:11:28;;;;;;;9.83;9.00;;;22.10;98.70;;;;;;5072591;28;20206;-70
2022/06/05 01:14:16;;;;;;;10.97;10.07;;;22.10;98.90;;;;;;5050621;28;20511;-69
2022/06/05 01:17:04;;;;;;;9.43;8.70;;;22.10;99.10;;;;;;5068757;28;20452;-70
2022/06/05 01:19:40;;;;;;;8.90;8.20;;;22.00;99.20;;;;;;5047798;28;20518;-68
2022/06/05 01:22:18;;;;;;;10.03;9.23;;;22.00;99.10;;;;;;5086950;28;20455;-70
2022/06/05 01:24:58;;;;;;;10.50;9.60;;;22.00;99.30;;;;;;5068176;28;20460;-69
2022/06/05 01:27:29;;;;;;;11.20;10.10;;;21.90;99.10;;;;;;5069487;28;22034;-71
2022/06/05 01:30:19;;;;;;;11.13;9.00;;;21.90;99.30;;;;;;5069451;28;20541;-70
2022/06/05 01:32:51;;;;;;;10.40;9.53;;;21.90;99.20;;;;;;5056091;28;20457;-69
2022/06/05 01:35:37;;;;;;;9.50;8.80;;;21.90;99.30;;;;;;5074632;28;20469;-67
2022/06/05 01:38:17;;;;;;;10.17;9.37;;;21.90;99.50;;;;;;5072322;28;20809;-68
2022/06/05 01:40:49;;;;;;;11.40;9.53;;;21.80;99.60;;;;;;5068849;28;20840;-68
2022/06/05 01:43:20;;;;;;;9.57;8.77;;;21.80;99.90;;;;;;5060034;28;20479;-69
2022/06/05 01:45:51;;;;;;;9.90;9.00;;;21.70;99.80;;;;;;5043946;28;20466;-68
2022/06/05 01:48:23;;;;;;;14.10;9.17;;;21.80;99.90;;;;;;5084845;28;20453;-68
2022/06/05 01:50:54;;;;;;;11.00;10.10;;;21.70;99.90;;;;;;5068296;28;20533;-69
2022/06/05 01:53:42;;;;;;;10.30;9.50;;;21.80;99.90;;;;;;5070567;28;20448;-68
2022/06/05 01:56:37;;;;;;;10.43;9.60;;;21.70;99.90;;;;;;5061851;28;20450;-68
2022/06/05 01:59:30;;;;;;;9.53;8.63;;;21.70;99.80;;;;;;5064295;28;20442;-69
2022/06/05 02:01:59;;;;;;;9.33;8.53;;;21.70;99.90;;;;;;5048569;28;20507;-69
2022/06/05 02:04:39;;;;;;;10.53;9.60;;;21.70;99.80;;;;;;5072514;28;20889;-69
2022/06/05 02:07:28;;;;;;;9.40;8.70;;;21.70;99.80;;;;;;5071174;28;20484;-69
2022/06/05 02:10:04;;;;;;;8.83;8.13;;;21.70;99.90;;;;;;5067340;28;20453;-69
2022/06/05 02:12:31;;;;;;;8.60;7.90;;;21.70;99.80;;;;;;5073238;28;20453;-67
2022/06/05 02:14:57;;;;;;;10.60;9.57;;;21.60;99.90;;;;;;5058667;28;20466;-68
2022/06/05 02:17:23;;;;;;;9.60;8.80;;;21.60;99.90;;;;;;5058766;28;20450;-69
2022/06/05 02:19:49;;;;;;;9.70;8.80;;;21.60;99.90;;;;;;5060882;28;20734;-68
2022/06/05 02:22:28;;;;;;;10.60;9.70;;;21.60;99.90;;;;;;5072546;28;20264;-69
2022/06/05 02:24:54;;;;;;;10.07;9.30;;;21.60;99.80;;;;;;5068336;28;21009;-68
2022/06/05 02:27:22;;;;;;;9.60;8.80;;;21.50;99.80;;;;;;5062388;28;21010;-69
2022/06/05 02:29:48;;;;;;;9.47;8.77;;;21.50;99.90;;;;;;5066093;28;20464;-73
2022/06/05 02:32:20;;;;;;;10.57;9.70;;;21.40;99.90;;;;;;5070920;28;20473;-68
2022/06/05 02:35:03;;;;;;;9.93;9.13;;;21.40;99.90;;;;;;5066873;28;20453;-70
2022/06/05 02:37:54;;;;;;;9.53;8.83;;;21.30;99.90;;;;;;5067792;28;20462;-68
2022/06/05 02:40:38;;;;;;;10.70;9.80;;;21.20;99.90;;;;;;5072476;28;20540;-69
2022/06/05 02:43:07;;;;;;;10.20;9.30;;;21.20;99.90;;;;;;5059829;28;20488;-68
2022/06/05 02:45:44;;;;;;;10.57;9.67;;;21.10;99.90;;;;;;5053927;28;20446;-68
2022/06/05 02:48:42;;;;;;;12.57;8.87;;;21.10;99.90;;;;;;5067235;28;20463;-68
2022/06/05 02:51:13;;;;;;;10.30;9.30;;;21.10;99.90;;;;;;5064893;28;20450;-68
2022/06/05 02:53:55;;;;;;;9.90;9.00;;;21.00;99.90;;;;;;5078732;28;20449;-69
2022/06/05 02:56:22;;;;;;;9.57;8.80;;;21.00;99.90;;;;;;5072884;28;20510;-68
2022/06/05 02:58:49;;;;;;;8.87;8.10;;;20.90;99.90;;;;;;5070117;28;20454;-69
2022/06/05 03:03:59;;;;;;;10.23;9.33;;;20.90;99.90;;;;;;5071653;28;20544;-69
2022/06/05 03:06:31;;;;;;;9.33;8.63;;;20.90;99.90;;;;;;5070335;28;20612;-67
2022/06/05 03:08:57;;;;;;;9.90;9.10;;;20.90;99.90;;;;;;5071797;28;20226;-69
2022/06/05 03:11:23;;;;;;;9.80;9.00;;;20.90;99.90;;;;;;5069974;28;20568;-68
2022/06/05 03:13:49;;;;;;;9.37;8.50;;;20.80;99.90;;;;;;5069887;28;20552;-68
2022/06/05 03:16:14;;;;;;;9.63;8.83;;;20.80;99.90;;;;;;5069735;28;20306;-69
2022/06/05 03:18:40;;;;;;;9.93;9.10;;;20.80;99.90;;;;;;5071333;28;20720;-68
2022/06/05 03:21:06;;;;;;;9.60;8.80;;;20.80;99.90;;;;;;5072124;28;20218;-70
2022/06/05 03:23:32;;;;;;;9.13;8.43;;;20.70;99.90;;;;;;5076235;28;20444;-68
2022/06/05 03:25:58;;;;;;;8.93;8.13;;;20.70;99.90;;;;;;5073713;28;20714;-68
2022/06/05 03:28:25;;;;;;;9.60;8.70;;;20.70;99.90;;;;;;5068266;28;20232;-68
2022/06/05 03:30:51;;;;;;;9.20;8.30;;;20.80;99.90;;;;;;5068639;28;20890;-70
2022/06/05 03:33:17;;;;;;;9.00;8.20;;;20.80;99.90;;;;;;5070610;28;20616;-68
2022/06/05 03:35:46;;;;;;;9.23;8.43;;;20.80;99.90;;;;;;5070399;28;20449;-69
2022/06/05 03:38:13;;;;;;;9.10;8.30;;;20.80;99.90;;;;;;5057088;28;21029;-68
2022/06/05 03:40:42;;;;;;;8.70;7.90;;;20.80;99.90;;;;;;5075285;28;21031;-68
2022/06/05 03:43:08;;;;;;;8.63;7.93;;;20.80;99.90;;;;;;5065141;28;20460;-69
2022/06/05 03:45:34;;;;;;;8.90;8.10;;;20.80;99.90;;;;;;5049488;28;20491;-68
2022/06/05 03:47:59;;;;;;;9.10;8.40;;;20.80;99.90;;;;;;5068952;28;20848;-69
2022/06/05 03:50:25;;;;;;;9.00;8.30;;;20.80;99.90;;;;;;5064469;28;20307;-70
2022/06/05 03:52:51;;;;;;;8.57;7.70;;;20.80;99.90;;;;;;5064423;28;20683;-69
2022/06/05 03:55:19;;;;;;;9.03;8.33;;;20.80;99.90;;;;;;5061724;28;20228;-68
2022/06/05 03:57:45;;;;;;;14.90;8.57;;;20.80;99.90;;;;;;5058859;28;20216;-69
2022/06/05 04:00:13;;;;;;;8.80;8.03;;;20.80;99.90;;;;;;5064142;28;20457;-68
2022/06/05 04:02:39;;;;;;;9.30;8.50;;;20.80;99.90;;;;;;5068899;28;20211;-68
2022/06/05 04:05:07;;;;;;;8.90;8.20;;;20.80;99.90;;;;;;5067387;28;20806;-68
2022/06/05 04:07:32;;;;;;;7.83;7.23;;;20.80;99.90;;;;;;5054582;28;21021;-70
2022/06/05 04:09:58;;;;;;;8.47;7.77;;;20.90;99.90;;;;;;5063615;28;20449;-69
2022/06/05 04:12:24;;;;;;;9.07;8.17;;;20.80;99.90;;;;;;5071036;28;20251;-69
2022/06/05 04:14:49;;;;;;;8.50;7.90;;;20.80;99.90;;;;;;5066024;28;20227;-68
2022/06/05 04:17:15;;;;;;;8.80;8.10;;;20.80;99.90;;;;;;5055735;28;20219;-68
2022/06/05 04:19:41;;;;;;;9.93;9.13;;;20.80;99.90;;;;;;5069541;28;20302;-68
2022/06/05 04:22:07;;;;;;;9.80;8.90;;;20.80;99.90;;;;;;5052575;28;20692;-69
2022/06/05 04:24:33;;;;;;;8.87;8.07;;;20.80;99.90;;;;;;5058853;28;20215;-70
2022/06/05 04:26:59;;;;;;;9.27;8.57;;;20.80;99.90;;;;;;5070043;28;20712;-69
2022/06/05 04:29:25;;;;;;;9.27;8.50;;;20.80;99.90;;;;;;5068467;28;20452;-67
2022/06/05 04:31:51;;;;;;;9.23;8.37;;;20.80;99.90;;;;;;5070729;28;20718;-68
2022/06/05 04:34:22;;;;;;;8.33;7.67;;;20.80;99.90;;;;;;5064049;28;20228;-68
2022/06/05 04:36:49;;;;;;;8.47;7.77;;;20.80;99.90;;;;;;5062377;28;20458;-68
2022/06/05 04:39:14;;;;;;;9.50;8.70;;;20.80;99.90;;;;;;5054363;28;20458;-69
2022/06/05 04:41:41;;;;;;;8.23;7.63;;;20.80;99.90;;;;;;5068248;28;20445;-69
2022/06/05 04:44:10;;;;;;;9.10;8.30;;;20.80;99.90;;;;;;5073130;28;20222;-69
2022/06/05 04:46:36;;;;;;;10.83;9.90;;;20.80;99.90;;;;;;5070476;28;20461;-69
2022/06/05 04:49:03;;;;;;;9.57;8.77;;;20.80;99.90;;;;;;5067232;28;20469;-68
2022/06/05 04:51:28;;;;;;;9.07;8.17;;;20.80;99.90;;;;;;5057294;28;20226;-68
2022/06/05 04:53:56;;;;;;;8.93;7.93;;;20.80;99.90;;;;;;5067080;28;20823;-70
2022/06/05 04:56:24;;;;;;;9.10;8.30;;;20.80;99.90;;;;;;5048714;28;20215;-68
2022/06/05 04:58:51;;;;;;;9.67;8.87;;;20.80;99.90;;;;;;5068446;28;20496;-69
2022/06/05 05:01:25;;;;;;;9.97;9.07;;;20.80;99.90;;;;;;5058397;28;20453;-68
2022/06/05 05:03:55;;;;;;;8.67;7.97;;;20.80;99.90;;;;;;5065450;28;20472;-68
2022/06/05 05:06:21;;;;;;;9.53;8.73;;;20.80;99.90;;;;;;5068164;28;21032;-69
2022/06/05 05:08:47;;;;;;;10.13;9.33;;;20.80;99.90;;;;;;5074661;28;20851;-68
2022/06/05 05:11:13;;;;;;;9.93;9.03;;;20.80;99.90;;;;;;5060933;28;20968;-69
2022/06/05 05:13:39;;;;;;;9.97;9.17;;;20.80;99.90;;;;;;5044912;28;20215;-68
2022/06/05 05:16:05;;;;;;;10.00;9.20;;;20.80;99.90;;;;;;5042531;28;20219;-68
2022/06/05 05:18:31;;;;;;;9.30;8.50;;;20.80;99.90;;;;;;5050766;28;20219;-68
2022/06/05 05:21:05;;;;;;;9.47;8.63;;;20.70;99.90;;;;;;5065628;28;20264;-68
2022/06/05 05:23:31;;;;;;;9.47;8.67;;;20.70;99.90;;;;;;5068939;28;20214;-68
2022/06/05 05:26:07;;;;;;;9.47;8.57;;;20.70;99.90;;;;;;5064336;28;20466;-68
2022/06/05 05:28:33;;;;;;;9.50;8.70;;;20.70;99.90;;;;;;5070406;28;20215;-71
2022/06/05 05:30:59;;;;;;;9.27;8.53;;;20.70;99.90;;;;;;5064902;28;20450;-68
2022/06/05 05:33:24;;;;;;;10.17;9.23;;;20.70;99.90;;;;;;5072112;28;20626;-69
2022/06/05 05:35:50;;;;;;;8.87;8.20;;;20.70;99.90;;;;;;5072435;28;20284;-68
2022/06/05 05:38:16;;;;;;;9.10;8.30;;;20.60;99.90;;;;;;5080857;28;20232;-68
2022/06/05 05:43:26;;;;;;;9.67;8.90;;;20.70;99.90;;;;;;5080153;28;20242;-68
2022/06/05 05:45:52;;;;;;;9.30;8.40;;;20.60;99.90;;;;;;5066721;28;20993;-69
2022/06/05 05:48:17;;;;;;;11.47;10.47;;;20.60;99.90;;;;;;5047464;28;20223;-66
2022/06/05 05:50:46;;;;;;;9.40;8.67;;;20.60;99.90;;;;;;5067508;28;20211;-69
2022/06/05 05:53:12;;;;;;;12.87;11.77;;;20.60;99.90;;;;;;5070148;28;20218;-69
2022/06/05 05:55:38;;;;;;;9.50;8.70;;;20.60;99.90;;;;;;5062944;28;20458;-68
2022/06/05 05:58:03;;;;;;;10.53;9.50;;;20.60;99.90;;;;;;5064145;28;20459;-68
2022/06/05 06:00:29;;;;;;;10.07;9.27;;;20.60;99.90;;;;;;5072818;28;20263;-69
2022/06/05 06:02:56;;;;;;;9.90;9.10;;;20.60;99.90;;;;;;5054749;28;20213;-68
2022/06/05 06:05:22;;;;;;;9.90;9.10;;;20.60;99.90;;;;;;5071451;28;20730;-69
2022/06/05 06:07:48;;;;;;;10.40;9.50;;;20.60;99.90;;;;;;5065194;28;21055;-68
2022/06/05 06:10:14;;;;;;;9.83;9.03;;;20.60;99.90;;;;;;5072941;28;20469;-68
2022/06/05 06:12:39;;;;;;;9.87;8.90;;;20.60;99.90;;;;;;5066118;28;20306;-69
2022/06/05 06:15:06;;;;;;;11.43;9.20;;;20.60;99.90;;;;;;5064728;28;20223;-68
2022/06/05 06:17:32;;;;;;;11.13;9.33;;;20.60;99.90;;;;;;5057904;28;20255;-69
2022/06/05 06:19:57;;;;;;;10.50;9.60;;;20.60;99.90;;;;;;5067805;28;20497;-67
2022/06/05 06:22:23;;;;;;;10.17;9.27;;;20.60;99.90;;;;;;5065397;28;20233;-70
2022/06/05 06:24:49;;;;;;;9.83;8.97;;;20.60;99.90;;;;;;5069449;28;20228;-68
2022/06/05 06:27:14;;;;;;;11.10;9.27;;;20.60;99.90;;;;;;5061157;28;20710;-69
2022/06/05 06:29:40;;;;;;;10.40;9.50;;;20.60;99.90;;;;;;5067231;28;20275;-68
2022/06/05 06:32:06;;;;;;;10.07;9.23;;;20.60;99.90;;;;;;5073917;28;20297;-69
2022/06/05 06:34:32;;;;;;;10.50;9.50;;;20.60;99.90;;;;;;5066844;28;20234;-68
2022/06/05 06:36:58;;;;;;;10.93;9.87;;;20.60;99.90;;;;;;5071888;28;20458;-69
2022/06/05 06:39:24;;;;;;;10.33;9.47;;;20.50;99.90;;;;;;5066064;28;20731;-69
2022/06/05 06:41:50;;;;;;;11.47;10.40;;;20.50;99.90;;;;;;5051226;28;20751;-70
2022/06/05 06:44:16;;;;;;;10.87;9.90;;;20.50;99.90;;;;;;5080054;28;20233;-67
2022/06/05 06:46:42;;;;;;;10.50;9.63;;;20.50;99.90;;;;;;5053670;28;21015;-70
2022/06/05 06:49:09;;;;;;;10.70;9.83;;;20.50;99.90;;;;;;5080033;28;20458;-69
2022/06/05 06:51:35;;;;;;;10.67;9.67;;;20.50;99.90;;;;;;5058704;28;20207;-69
2022/06/05 06:54:00;;;;;;;10.50;9.60;;;20.50;99.90;;;;;;5070877;28;20460;-70
2022/06/05 06:56:29;;;;;;;11.53;10.53;;;20.50;99.90;;;;;;5053369;28;20996;-69
2022/06/05 06:58:57;;;;;;;11.50;10.10;;;20.50;99.90;;;;;;5070550;28;20219;-68
2022/06/05 07:01:22;;;;;;;10.97;9.87;;;20.50;99.90;;;;;;5062992;28;20472;-68
2022/06/05 07:03:48;;;;;;;11.00;10.00;;;20.50;99.90;;;;;;5068294;28;20843;-68
2022/06/05 07:06:15;;;;;;;11.00;10.07;;;20.50;99.90;;;;;;5074635;28;20230;-68
2022/06/05 07:08:43;;;;;;;11.23;10.17;;;20.50;99.90;;;;;;5063721;28;20755;-69
2022/06/05 07:11:10;;;;;;;11.10;10.10;;;20.50;99.90;;;;;;5055916;28;20539;-69
2022/06/05 07:13:37;;;;;;;11.03;10.03;;;20.50;99.90;;;;;;5073987;28;20862;-70
2022/06/05 07:16:06;;;;;;;11.17;10.17;;;20.60;99.90;;;;;;5048270;28;21012;-68
2022/06/05 07:18:31;;;;;;;12.13;10.93;;;20.50;99.90;;;;;;5059400;28;20445;-69
2022/06/05 07:20:57;;;;;;;11.20;10.20;;;20.60;99.90;;;;;;5066487;28;20525;-69
2022/06/05 07:23:23;;;;;;;11.30;10.30;;;20.50;99.90;;;;;;5066711;28;20223;-70
2022/06/05 07:25:51;;;;;;;13.23;10.40;;;20.60;99.90;;;;;;5069889;28;20231;-68
2022/06/05 07:28:19;;;;;;;11.00;10.00;;;20.50;99.90;;;;;;5059624;28;20246;-69
2022/06/05 07:30:49;;;;;;;11.07;10.17;;;20.60;99.90;;;;;;5067281;28;20815;-70
2022/06/05 07:33:16;;;;;;;11.40;10.30;;;20.60;99.90;;;;;;5050834;28;20978;-70
2022/06/05 07:35:42;;;;;;;10.90;10.00;;;20.60;99.90;;;;;;5049871;28;21033;-68
2022/06/05 07:38:09;;;;;;;12.60;10.17;;;20.60;99.90;;;;;;5062561;28;20493;-70
2022/06/05 07:40:42;;;;;;;12.63;11.33;;;20.60;99.90;;;;;;5060950;28;20843;-68
2022/06/05 07:43:10;;;;;;;10.20;9.33;;;20.60;99.90;;;;;;5065753;28;20464;-69
2022/06/05 07:45:37;;;;;;;12.00;10.90;;;20.60;99.90;;;;;;5085739;28;20460;-68
2022/06/05 07:48:03;;;;;;;11.60;10.40;;;20.60;99.90;;;;;;5043054;28;20561;-69
2022/06/05 07:50:30;;;;;;;10.80;9.90;;;20.60;99.90;;;;;;5050901;28;20441;-69
2022/06/05 07:55:40;;;;;;;12.67;11.57;;;20.70;99.90;;;;;;5068984;28;20464;-70
2022/06/05 07:58:05;;;;;;;10.80;9.70;;;20.60;99.90;;;;;;5066501;28;20865;-68
2022/06/05 08:00:32;;;;;;;12.93;10.37;;;20.70;99.90;;;;;;5071629;28;20242;-68
2022/06/05 08:02:57;;;;;;;11.30;10.10;;;20.70;99.90;;;;;;5068598;28;20207;-68
2022/06/05 08:05:23;;;;;;;11.00;10.10;;;20.70;99.90;;;;;;5063139;28;20454;-69
2022/06/05 08:07:49;;;;;;;11.20;10.20;;;20.70;99.90;;;;;;5069034;28;20645;-69
2022/06/05 08:10:15;;;;;;;11.87;10.70;;;20.70;99.90;;;;;;5051555;28;20559;-69
2022/06/05 08:12:40;;;;;;;10.83;9.87;;;20.70;99.90;;;;;;5058582;28;20735;-68
2022/06/05 08:15:10;;;;;;;11.47;10.47;;;20.70;99.90;;;;;;5055208;28;20223;-68
2022/06/05 08:17:37;;;;;;;10.70;9.80;;;20.60;99.90;;;;;;5063165;28;20227;-69
2022/06/05 08:20:04;;;;;;;11.47;10.30;;;20.70;99.90;;;;;;5056686;28;20459;-68
2022/06/05 08:22:30;;;;;;;10.90;9.90;;;20.70;99.90;;;;;;5057416;28;20446;-69
2022/06/05 08:24:56;;;;;;;10.20;9.23;;;20.70;99.90;;;;;;5073972;28;20465;-69
2022/06/05 08:27:25;;;;;;;10.80;9.90;;;20.70;99.90;;;;;;5057754;28;20234;-68
2022/06/05 08:29:55;;;;;;;10.87;9.87;;;20.70;99.90;;;;;;5071383;28;20707;-70
2022/06/05 08:32:22;;;;;;;10.47;9.47;;;20.60;99.90;;;;;;5067149;28;20545;-69
2022/06/05 08:34:48;;;;;;;11.27;10.27;;;20.70;99.90;;;;;;5053064;28;20466;-73
2022/06/05 08:43:10;;;;;;;10.33;9.43;;;20.60;99.90;;;;;;5061892;28;20964;-72
2022/06/05 08:45:43;;;;;;;9.80;9.00;;;20.60;99.90;;;;;;5059503;28;20829;-70
2022/06/05 08:48:23;;;;;;;11.83;10.83;;;20.70;99.90;;;;;;5070391;28;20465;-70
2022/06/05 08:50:55;;;;;;;10.10;9.20;;;20.70;99.90;;;;;;5047555;28;20457;-70
2022/06/05 08:53:41;;;;;;;10.60;9.60;;;20.60;99.90;;;;;;5067157;28;20541;-69
2022/06/05 08:56:11;;;;;;;9.47;8.60;;;20.60;99.90;;;;;;5069622;28;20523;-70
2022/06/05 08:58:49;;;;;;;11.03;10.13;;;20.70;99.90;;;;;;5061608;28;20485;-69
2022/06/05 09:01:30;;;;;;;10.50;9.60;;;20.70;99.90;;;;;;5066868;28;20912;-70
2022/06/05 09:04:18;;;;;;;10.30;9.30;;;20.70;99.90;;;;;;5067538;28;20469;-71
2022/06/05 09:06:49;;;;;;;9.70;8.80;;;20.70;99.90;;;;;;5067332;28;20591;-70
2022/06/05 09:09:27;;;;;;;10.63;9.53;;;20.70;99.90;;;;;;5066248;28;20451;-72
2022/06/05 09:12:22;;;;;;;10.67;9.67;;;20.70;99.90;;;;;;5054250;28;20453;-69
2022/06/05 09:15:10;;;;;;;9.90;9.00;;;20.80;99.90;;;;;;5064903;28;20464;-73
2022/06/05 09:17:42;;;;;;;12.00;10.13;;;20.80;99.90;;;;;;5056132;28;20965;-68
2022/06/05 09:20:13;;;;;;;11.13;10.23;;;20.80;99.90;;;;;;5062202;28;20460;-70
2022/06/05 09:22:57;;;;;;;11.40;10.40;;;20.70;99.90;;;;;;5058037;28;20456;-70
2022/06/05 09:25:45;;;;;;;11.97;10.83;;;20.80;99.90;;;;;;5079075;28;20496;-72
2022/06/05 09:28:29;;;;;;;10.90;9.90;;;20.80;99.90;;;;;;5070591;28;20883;-72
2022/06/05 09:31:32;;;;;;;11.60;10.50;;;20.70;99.90;;;;;;5062076;28;20541;-71
2022/06/05 09:34:04;;;;;;;10.33;9.53;;;20.70;99.90;;;;;;5067127;28;20789;-69
2022/06/05 09:36:31;;;;;;;11.70;10.70;;;20.80;99.90;;;;;;5057296;28;20461;-69
2022/06/05 09:39:25;;;;;;;11.00;9.90;;;20.70;99.90;;;;;;5066496;28;20445;-71
2022/06/05 09:42:08;;;;;;;10.90;9.83;;;20.80;99.90;;;;;;5064218;28;20532;-70
2022/06/05 09:45:00;;;;;;;10.93;9.93;;;20.80;99.90;;;;;;5064012;28;20855;-70
2022/06/05 09:47:41;;;;;;;10.33;9.43;;;20.80;99.90;;;;;;5053793;28;20822;-73
2022/06/05 09:50:20;;;;;;;11.97;10.87;;;20.80;99.90;;;;;;5064920;28;20560;-70
2022/06/05 09:52:46;;;;;;;11.63;10.63;;;20.80;99.90;;;;;;5061428;28;20441;-72
2022/06/05 09:55:18;;;;;;;11.63;10.50;;;20.80;99.90;;;;;;5054615;28;21185;-70
2022/06/05 10:00:44;;;;;;;11.63;10.63;;;20.80;99.90;;;;;;5067259;28;21036;-70
2022/06/05 10:03:16;;;;;;;11.80;10.80;;;20.80;99.90;;;;;;5045075;28;20450;-70
2022/06/05 10:05:45;;;;;;;12.00;11.00;;;20.80;99.90;;;;;;5061294;28;20462;-69
2022/06/05 10:08:23;;;;;;;12.40;11.10;;;20.80;99.90;;;;;;5062731;28;20454;-71
2022/06/05 10:11:00;;;;;;;11.33;10.23;;;20.80;99.90;;;;;;5060545;28;20477;-70
2022/06/05 10:13:50;;;;;;;12.47;11.37;;;20.80;99.90;;;;;;5068475;28;20448;-68
2022/06/05 10:16:34;;;;;;;12.00;10.90;;;20.90;99.90;;;;;;5068151;28;20484;-68
2022/06/05 10:19:22;;;;;;;14.73;11.33;;;20.90;99.90;;;;;;5080420;28;21031;-70
2022/06/05 10:21:57;;;;;;;11.83;10.73;;;21.00;99.90;;;;;;5069167;28;20511;-68
2022/06/05 10:24:35;;;;;;;10.80;9.90;;;21.00;99.90;;;;;;5068225;28;20453;-68
2022/06/05 10:27:02;;;;;;;10.80;9.90;;;21.00;99.90;;;;;;5060311;28;20517;-70
2022/06/05 10:29:37;;;;;;;10.67;9.67;;;21.10;99.90;;;;;;5067445;28;20495;-69
2022/06/05 10:32:02;;;;;;;11.30;10.30;;;21.20;99.90;;;;;;5067927;28;20532;-68
2022/06/05 10:34:51;;;;;;;10.57;9.67;;;21.20;99.90;;;;;;5077122;28;21361;-67
2022/06/05 10:37:33;;;;;;;10.93;9.97;;;21.20;99.90;;;;;;5073983;28;20227;-69
2022/06/05 10:40:20;;;;;;;10.07;9.10;;;21.30;99.90;;;;;;5048351;28;20446;-67
2022/06/05 10:42:59;;;;;;;11.23;10.17;;;21.30;99.90;;;;;;5061805;28;20920;-68
2022/06/05 10:45:46;;;;;;;10.57;9.67;;;21.40;99.90;;;;;;5069084;28;20545;-66
2022/06/05 10:48:45;;;;;;;11.37;10.40;;;21.40;99.90;;;;;;5075850;28;20463;-67
2022/06/05 10:51:35;;;;;;;11.10;10.10;;;21.40;99.90;;;;;;5052451;28;20969;-67
2022/06/05 10:54:29;;;;;;;11.63;10.53;;;21.40;99.90;;;;;;5045971;28;20846;-67
2022/06/05 10:57:24;;;;;;;11.33;10.23;;;21.50;99.90;;;;;;5068062;28;20455;-66
2022/06/05 11:00:17;;;;;;;10.70;9.70;;;21.50;99.90;;;;;;5058160;28;20453;-68
2022/06/05 11:03:04;;;;;;;11.27;10.20;;;21.50;99.90;;;;;;5061836;28;20937;-70
2022/06/05 11:05:54;;;;;;;11.67;10.57;;;21.50;99.90;;;;;;5061462;28;20439;-67
2022/06/05 11:08:31;;;;;;;12.17;11.10;;;21.60;99.90;;;;;;5064958;28;20819;-68
2022/06/05 11:14:11;;;;;;;11.67;10.53;;;21.60;99.90;;;;;;5059584;28;20445;-71
2022/06/05 11:16:53;;;;;;;11.87;10.67;;;21.70;99.90;;;;;;5062093;28;20843;-70
2022/06/05 11:19:43;;;;;;;15.60;12.60;;;21.70;99.90;;;;;;5068309;28;20452;-70
2022/06/05 11:22:14;;;;;;;11.97;10.97;;;21.70;99.90;;;;;;5064641;28;20433;-69
2022/06/05 11:24:52;;;;;;;12.30;11.20;;;21.70;99.90;;;;;;5059564;28;20496;-68
2022/06/05 11:27:49;;;;;;;13.13;11.17;;;21.70;99.90;;;;;;5067947;28;20500;-72
2022/06/05 11:30:24;;;;;;;11.80;10.70;;;21.70;99.90;;;;;;5069463;28;21032;-68
2022/06/05 11:33:01;;;;;;;12.27;11.07;;;21.70;99.90;;;;;;5067672;28;20440;-69
2022/06/05 11:35:50;;;;;;;12.87;11.70;;;21.70;99.90;;;;;;5046702;28;20886;-67
2022/06/05 11:38:42;;;;;;;12.07;10.97;;;21.70;99.90;;;;;;5068445;28;20981;-68
2022/06/05 11:41:54;;;;;;;13.43;11.00;;;21.80;99.90;;;;;;5068875;28;20449;-69
2022/06/05 11:44:26;;;;;;;10.97;9.97;;;21.80;99.90;;;;;;5022113;28;20453;-69
2022/06/05 11:47:06;;;;;;;12.43;11.33;;;21.80;99.90;;;;;;5067717;28;20470;-69
2022/06/05 11:50:07;;;;;;;11.60;10.70;;;21.70;99.90;;;;;;5069335;28;20964;-70
2022/06/05 11:52:43;;;;;;;11.97;10.87;;;21.70;99.90;;;;;;5065854;28;20448;-68
2022/06/05 11:55:40;;;;;;;13.20;11.90;;;21.80;99.90;;;;;;5068401;28;20457;-68
2022/06/05 11:58:46;;;;;;;11.00;10.10;;;21.80;99.90;;;;;;5067858;28;20545;-68
2022/06/05 12:01:16;;;;;;;11.90;10.90;;;21.80;99.90;;;;;;5065372;28;20453;-69
2022/06/05 12:04:14;;;;;;;12.57;11.40;;;21.80;99.90;;;;;;5068281;28;20453;-68
2022/06/05 12:06:57;;;;;;;11.90;10.90;;;21.80;99.90;;;;;;5072147;28;20942;-68
2022/06/05 12:09:29;;;;;;;12.67;11.57;;;21.90;99.90;;;;;;5063489;28;20454;-68
2022/06/05 12:12:00;;;;;;;13.17;11.87;;;22.00;99.90;;;;;;5064266;28;20453;-69
2022/06/05 12:14:33;;;;;;;13.70;12.50;;;22.00;99.90;;;;;;5066317;28;20461;-68
2022/06/05 12:17:16;;;;;;;12.83;11.53;;;22.10;99.90;;;;;;5066590;28;20514;-69
2022/06/05 12:19:45;;;;;;;12.97;11.87;;;22.10;99.90;;;;;;5068743;28;20498;-68
2022/06/05 12:22:22;;;;;;;13.07;11.93;;;22.20;99.90;;;;;;5060161;28;20446;-69
2022/06/05 12:24:54;;;;;;;14.17;12.97;;;22.20;99.90;;;;;;5050596;28;20459;-70
2022/06/05 12:27:23;;;;;;;14.97;13.57;;;22.30;99.90;;;;;;5065712;28;20548;-68
2022/06/05 12:29:57;;;;;;;13.57;12.23;;;22.30;99.90;;;;;;5051415;28;20446;-68
2022/06/05 12:32:37;;;;;;;14.37;13.07;;;22.40;99.90;;;;;;5059539;28;20507;-68
2022/06/05 12:35:06;;;;;;;12.33;11.23;;;22.40;99.90;;;;;;5067092;28;20453;-69
2022/06/05 12:37:36;;;;;;;13.43;12.20;;;22.40;99.90;;;;;;5066607;28;20457;-69
2022/06/05 12:40:04;;;;;;;13.30;12.10;;;22.50;99.90;;;;;;5075475;28;20446;-69
2022/06/05 12:42:54;;;;;;;13.83;12.57;;;22.60;99.90;;;;;;5067167;28;20441;-69
2022/06/05 12:45:26;;;;;;;13.40;12.20;;;22.60;99.90;;;;;;5074299;28;20469;-69
2022/06/05 12:48:11;;;;;;;14.20;13.00;;;22.60;99.90;;;;;;5066077;28;20464;-69
2022/06/05 12:50:39;;;;;;;14.43;12.93;;;22.60;99.90;;;;;;5077339;28;20871;-68
2022/06/05 12:53:10;;;;;;;16.40;15.00;;;22.70;99.90;;;;;;5062761;28;20500;-69
2022/06/05 12:55:43;;;;;;;14.17;12.97;;;22.70;99.90;;;;;;5079925;28;20457;-70
2022/06/05 12:58:21;;;;;;;16.40;14.87;;;22.80;99.90;;;;;;5057231;28;20471;-69
2022/06/05 13:01:03;;;;;;;15.30;13.80;;;22.80;99.90;;;;;;5061318;28;20991;-69
2022/06/05 13:03:47;;;;;;;15.47;13.87;;;22.80;99.90;;;;;;5058010;28;20446;-70
2022/06/05 13:06:34;;;;;;;15.73;14.07;;;22.90;99.90;;;;;;5062736;28;20882;-69
2022/06/05 13:09:13;;;;;;;14.50;13.20;;;22.90;99.90;;;;;;5061637;28;20444;-67
2022/06/05 13:11:43;;;;;;;18.47;16.60;;;22.90;99.90;;;;;;5064563;28;20491;-69
2022/06/05 13:14:09;;;;;;;18.37;15.30;;;22.90;99.90;;;;;;5062018;28;20458;-69
2022/06/05 13:17:08;;;;;;;15.90;14.50;;;23.00;99.90;;;;;;5062659;28;20506;-70
2022/06/05 13:19:55;;;;;;;17.23;14.37;;;23.00;99.90;;;;;;5060906;28;20214;-69
2022/06/05 13:22:33;;;;;;;18.17;16.37;;;23.10;99.90;;;;;;5073329;28;20450;-68
2022/06/05 13:25:16;;;;;;;17.63;16.00;;;23.10;99.90;;;;;;5066090;28;20821;-68
2022/06/05 13:28:09;;;;;;;16.20;14.73;;;23.10;99.90;;;;;;5069509;28;20546;-69